Capitol Logistics 406


KBNA
Nashville International Airport
Nashville, Tennessee, US
KRFD
Chicago/Rockford International Airport
Rockford, Illinois, US

Activity Log

Date Flight Route Aircraft Duration
09/04/2020 CPX406 HGGRD PXV J73 GUIDO JOT B738 1h 18m
11/14/2019 CPX406 N0406F350 HGGRD3 TINGS J29 PXV/N0420F340 PNT/N0330A160 V9 SMARS V128 RFD B738 1h 32m
09/25/2019 CPX406 N0451F410 HGGRD3 TINGS J29 PXV/N0453F400 PNT V9 SMARS V128 RFD B752 1h 15m
06/23/2019 CPX406 HGGRD PXV J73 GUIDO JOT B752 1h 07m
06/06/2019 CPX406 HGGRD PXV J73 GUIDO JOT B752 1h 32m
02/19/2019 CPX406 HGGRD PXV J73 GUIDO JOT B752 1h 16m

Route Details

Aircraft Information
Primary: Boeing 757-200SF
Backup: Boeing 737-800BCF
Route Data
Distance: 381nm
Sched. Duration: 1h 00m
Avg. Duration: 1h 20m (+21m)
Times Flown: 6
Recm'd Route: HGGRD PXV J73 GUIDO JOT
Planned Altitude: 36,000ft
Origin Wx: KBNA 281929Z 32007KT 2 1/2SM -RA BR OVC003 16/14 A2998 RMK AO2 P0001 T01560139
Dest. Wx: KRFD 281854Z 20009KT 10SM BKN250 11/M03 A3000 RMK AO2 SLP165 T01061033
Notes:

Financial History
Total Freight: 268,144lbs
Average Load: 44,691lbs/flt
Fuel Used: 54,556lbs
Avg. Fuel Used: 9,093lbs/flt
Fuel Expense: $46,918
Avg. Fuel Expense: $7,820
Avg. Fuel Cost: $0.86/lbs
Total Gross Income: $343,417
Pilot Pay: $974
Total Expenses: $37,401
Total Revenue: $257,450
Average Revenue: $57,236.13